Time;durP1;ratioP1;P1;durP2;ratioP2;P2;SDS_P1;SDS_P2;PMS_P1;PMS_P2;Temp;Humidity;BMP_temperature;BMP_pressure;BME280_temperature;BME280_humidity;BME280_pressure;Samples;Min_cycle;Max_cycle;Signal;HPM_P1;HPM_P2
2023/12/08 00:01:16;;;;;;;1.30;1.30;;;;;;;3.13;100.00;99532.84;5027728;28;20079;-61
2023/12/08 00:03:42;;;;;;;1.10;1.10;;;;;;;3.21;100.00;99535.41;5030043;28;20033;-61
2023/12/08 00:06:07;;;;;;;1.00;1.00;;;;;;;3.25;100.00;99529.19;5028799;28;22119;-61
2023/12/08 00:08:34;;;;;;;0.85;0.85;;;;;;;3.22;100.00;99523.97;5028330;28;20029;-61
2023/12/08 00:10:59;;;;;;;1.10;1.10;;;;;;;3.21;100.00;99523.13;5029543;28;20032;-61
2023/12/08 00:13:25;;;;;;;1.30;1.30;;;;;;;3.17;100.00;99536.31;5026653;28;20029;-61
2023/12/08 00:15:50;;;;;;;1.30;1.30;;;;;;;3.19;100.00;99521.41;5042934;28;20083;-62
2023/12/08 00:18:16;;;;;;;1.00;1.00;;;;;;;3.22;100.00;99526.63;5052320;28;20072;-61
2023/12/08 00:20:41;;;;;;;1.20;1.20;;;;;;;3.26;100.00;99525.72;5046132;28;20040;-62
2023/12/08 00:23:06;;;;;;;1.30;1.30;;;;;;;3.31;100.00;99518.63;5034417;28;20034;-62
2023/12/08 00:25:32;;;;;;;1.30;1.30;;;;;;;3.36;100.00;99522.09;5026277;28;20056;-62
2023/12/08 00:27:57;;;;;;;1.10;1.10;;;;;;;3.37;100.00;99518.56;5036555;28;20021;-62
2023/12/08 00:30:23;;;;;;;1.25;1.25;;;;;;;3.41;100.00;99512.38;5047216;28;20029;-63
2023/12/08 00:32:49;;;;;;;1.20;1.20;;;;;;;3.42;100.00;99529.88;5032470;28;20038;-62
2023/12/08 00:35:15;;;;;;;1.20;1.20;;;;;;;3.40;100.00;99510.63;5046336;28;20053;-63
2023/12/08 00:37:41;;;;;;;1.10;1.10;;;;;;;3.32;100.00;99497.59;5042335;28;20041;-63
2023/12/08 00:40:08;;;;;;;1.10;1.10;;;;;;;3.36;100.00;99509.78;5047175;28;20029;-62
2023/12/08 00:42:34;;;;;;;1.20;1.20;;;;;;;3.29;100.00;99494.13;5027033;28;20101;-62
2023/12/08 00:44:59;;;;;;;1.10;1.10;;;;;;;3.34;100.00;99489.69;5037184;28;20037;-62
2023/12/08 00:47:25;;;;;;;1.10;1.10;;;;;;;3.34;100.00;99510.72;5044688;28;20143;-62
2023/12/08 00:49:50;;;;;;;1.17;1.17;;;;;;;3.35;100.00;99501.94;5042302;28;20061;-62
2023/12/08 00:52:16;;;;;;;1.08;1.08;;;;;;;3.35;100.00;99496.66;5045354;28;20035;-62
2023/12/08 00:54:41;;;;;;;1.08;1.08;;;;;;;3.36;100.00;99503.69;5043974;28;20021;-62
2023/12/08 00:57:06;;;;;;;1.20;1.20;;;;;;;3.39;100.00;99498.38;5032135;28;20037;-62
2023/12/08 00:59:32;;;;;;;1.10;1.10;;;;;;;3.35;100.00;99496.66;5043617;28;20519;-63
2023/12/08 01:01:57;;;;;;;1.10;1.10;;;;;;;3.32;100.00;99491.47;5039939;28;20510;-62
2023/12/08 01:04:22;;;;;;;1.10;1.10;;;;;;;3.34;100.00;99489.69;5040796;28;20022;-62
2023/12/08 01:06:48;;;;;;;1.17;1.17;;;;;;;3.35;100.00;99497.56;5043197;28;20037;-62
2023/12/08 01:09:14;;;;;;;1.00;1.00;;;;;;;3.35;100.00;99502.81;5040726;28;20018;-63
2023/12/08 01:11:40;;;;;;;1.23;1.23;;;;;;;3.32;100.00;99501.97;5044611;28;20100;-62
2023/12/08 01:14:05;;;;;;;1.30;1.30;;;;;;;3.23;100.00;99508.19;5044446;28;20066;-62
2023/12/08 01:16:30;;;;;;;1.20;1.20;;;;;;;3.26;100.00;99509.94;5044466;28;20060;-62
2023/12/08 01:18:56;;;;;;;1.20;1.20;;;;;;;3.28;100.00;99521.31;5038541;28;20479;-63
2023/12/08 01:21:21;;;;;;;1.10;1.10;;;;;;;3.29;100.00;99523.03;5042527;28;20057;-62
2023/12/08 01:23:46;;;;;;;1.20;1.20;;;;;;;3.32;100.00;99523.00;5047320;28;20116;-63
2023/12/08 01:26:12;;;;;;;1.13;1.13;;;;;;;3.35;100.00;99512.44;5044783;28;20040;-63
2023/12/08 01:28:37;;;;;;;1.20;1.20;;;;;;;3.39;100.00;99524.69;5047460;28;20034;-63
2023/12/08 01:31:03;;;;;;;1.20;1.20;;;;;;;3.36;100.00;99522.94;5046950;28;20025;-63
2023/12/08 01:33:29;;;;;;;1.00;1.00;;;;;;;3.35;100.00;99523.84;5037897;28;20060;-63
2023/12/08 01:35:55;;;;;;;1.20;1.20;;;;;;;3.37;100.00;99531.69;5046625;28;20029;-62
2023/12/08 01:38:20;;;;;;;1.20;1.20;;;;;;;3.35;100.00;99538.72;5043710;28;20801;-62
2023/12/08 01:40:46;;;;;;;1.23;1.23;;;;;;;3.34;100.00;99530.00;5037664;28;20073;-61
2023/12/08 01:43:11;;;;;;;1.00;1.00;;;;;;;3.33;100.00;99532.59;5036758;28;20041;-62
2023/12/08 01:45:38;;;;;;;1.13;1.13;;;;;;;3.33;100.00;99540.50;5038431;28;20040;-61
2023/12/08 01:48:04;;;;;;;1.02;1.02;;;;;;;3.27;100.00;99530.06;5036703;28;20025;-63
2023/12/08 01:50:31;;;;;;;1.17;1.17;;;;;;;3.32;100.00;99544.03;5046098;28;20040;-63
2023/12/08 01:52:57;;;;;;;1.30;1.30;;;;;;;3.29;100.00;99544.06;5045380;28;20026;-63
2023/12/08 01:55:22;;;;;;;1.05;1.05;;;;;;;3.35;100.00;99543.97;5045343;28;20040;-62
2023/12/08 01:57:48;;;;;;;1.20;1.20;;;;;;;3.34;100.00;99537.00;5046016;28;20085;-63
2023/12/08 02:00:39;;;;;;;1.20;1.20;;;;;;;3.33;100.00;99540.50;5047914;28;20093;-63
2023/12/08 02:03:05;;;;;;;1.20;1.20;;;;;;;3.38;100.00;99533.44;5034823;28;20052;-63
2023/12/08 02:05:31;;;;;;;1.10;1.10;;;;;;;3.44;100.00;99528.13;5050142;28;20045;-62
2023/12/08 02:07:57;;;;;;;1.40;1.40;;;;;;;3.45;100.00;99508.81;5051129;28;20167;-63
2023/12/08 02:10:22;;;;;;;1.27;1.27;;;;;;;3.52;100.00;99489.47;5046370;28;20033;-63
2023/12/08 02:12:48;;;;;;;1.08;1.08;;;;;;;3.55;100.00;99481.53;5049619;28;20063;-63
2023/12/08 02:15:13;;;;;;;1.20;1.20;;;;;;;3.48;100.00;99486.00;5045427;28;20060;-63
2023/12/08 02:17:40;;;;;;;1.20;1.20;;;;;;;3.46;100.00;99469.38;5048998;28;20089;-62
2023/12/08 02:20:11;;;;;;;1.10;1.10;;;;;;;3.50;100.00;99475.47;5047787;28;20033;-63
2023/12/08 02:22:37;;;;;;;1.23;1.23;;;;;;;3.54;100.00;99487.69;5045444;28;20033;-63
2023/12/08 02:25:03;;;;;;;1.00;1.00;;;;;;;3.52;100.00;99478.94;5049441;28;20025;-63
2023/12/08 02:27:29;;;;;;;0.90;0.90;;;;;;;3.53;100.00;99501.69;5044048;28;20017;-63
2023/12/08 02:29:55;;;;;;;1.10;1.10;;;;;;;3.45;100.00;99519.34;5048682;28;20033;-63
2023/12/08 02:32:28;;;;;;;1.08;1.08;;;;;;;3.44;100.00;99520.22;5047094;28;20025;-63
2023/12/08 02:34:57;;;;;;;1.23;1.23;;;;;;;3.47;100.00;99501.78;5047241;28;20421;-63
2023/12/08 02:37:25;;;;;;;1.00;1.00;;;;;;;3.50;100.00;99512.25;5049457;28;20098;-63
2023/12/08 02:39:53;;;;;;;1.20;1.20;;;;;;;3.48;100.00;99519.28;5043296;28;20044;-63
2023/12/08 02:42:19;;;;;;;1.20;1.20;;;;;;;3.50;100.00;99522.78;5049855;28;20056;-63
2023/12/08 02:44:44;;;;;;;1.20;1.20;;;;;;;3.47;100.00;99499.16;5045668;28;20029;-64
2023/12/08 02:47:10;;;;;;;1.10;1.10;;;;;;;3.59;100.00;99473.56;5045608;28;20033;-63
2023/12/08 02:49:36;;;;;;;1.23;1.23;;;;;;;3.62;100.00;99464.78;5046955;28;20029;-63
2023/12/08 02:52:01;;;;;;;1.20;1.20;;;;;;;3.67;100.00;99447.19;5043226;28;20025;-63
2023/12/08 02:54:26;;;;;;;1.15;1.15;;;;;;;3.73;100.00;99441.81;5043927;28;20029;-64
2023/12/08 02:56:52;;;;;;;1.20;1.20;;;;;;;3.76;100.00;99453.19;5038577;28;20047;-63
2023/12/08 02:59:17;;;;;;;1.30;1.30;;;;;;;3.79;100.00;99468.03;5045873;28;20029;-63
2023/12/08 03:01:42;;;;;;;0.90;0.90;;;;;;;3.80;100.00;99475.03;5047594;28;20036;-63
2023/12/08 03:04:08;;;;;;;1.00;1.00;;;;;;;3.84;100.00;99488.13;5045223;28;20026;-63
2023/12/08 03:06:33;;;;;;;1.10;1.10;;;;;;;3.77;100.00;99480.34;5049281;28;20041;-63
2023/12/08 03:08:59;;;;;;;1.23;1.23;;;;;;;3.71;100.00;99480.41;5046827;28;20072;-62
2023/12/08 03:11:24;;;;;;;1.10;1.10;;;;;;;3.65;100.00;99480.50;5047231;28;20033;-63
2023/12/08 03:13:49;;;;;;;1.23;1.23;;;;;;;3.71;100.00;99480.41;5042293;28;20037;-62
2023/12/08 03:16:16;;;;;;;1.17;1.17;;;;;;;3.73;100.00;99473.38;5031840;28;20033;-62
2023/12/08 03:18:41;;;;;;;1.05;1.05;;;;;;;3.82;100.00;99478.53;5031970;28;20033;-63
2023/12/08 03:21:06;;;;;;;1.00;1.00;;;;;;;3.83;100.00;99480.25;5029270;28;20021;-63
2023/12/08 03:23:32;;;;;;;1.00;1.00;;;;;;;3.84;100.00;99480.22;5012254;28;20371;-63
2023/12/08 03:25:57;;;;;;;1.10;1.10;;;;;;;3.88;100.00;99471.41;5018662;28;20036;-63
2023/12/08 03:28:22;;;;;;;1.20;1.20;;;;;;;3.89;100.00;99474.91;5028683;28;20025;-63
2023/12/08 03:30:48;;;;;;;1.10;1.10;;;;;;;3.88;100.00;99462.66;5031206;28;20112;-63
2023/12/08 03:33:13;;;;;;;1.00;1.00;;;;;;;3.91;100.00;99462.59;5027353;28;20025;-63
2023/12/08 03:35:39;;;;;;;1.10;1.10;;;;;;;3.86;100.00;99460.03;5031548;28;20485;-63
2023/12/08 03:38:04;;;;;;;1.10;1.10;;;;;;;3.78;100.00;99437.38;5027991;28;20112;-63
2023/12/08 03:40:29;;;;;;;1.20;1.20;;;;;;;3.80;100.00;99448.75;5030368;28;20659;-63
2023/12/08 03:42:55;;;;;;;1.30;1.30;;;;;;;3.79;100.00;99437.34;5029391;28;20040;-63
2023/12/08 03:45:20;;;;;;;1.20;1.20;;;;;;;3.64;100.00;99441.97;5029220;28;20653;-63
2023/12/08 03:47:45;;;;;;;1.13;1.13;;;;;;;3.63;100.00;99445.47;5020460;28;20033;-64
2023/12/08 03:50:11;;;;;;;1.00;1.00;;;;;;;3.54;100.00;99430.69;5027761;28;20036;-64
2023/12/08 03:52:36;;;;;;;1.20;1.20;;;;;;;3.58;100.00;99453.44;5025828;28;20591;-63
2023/12/08 03:55:02;;;;;;;1.20;1.20;;;;;;;3.57;100.00;99446.44;5027163;28;20028;-63
2023/12/08 03:57:27;;;;;;;1.20;1.20;;;;;;;3.57;100.00;99450.84;5029039;28;20034;-62
2023/12/08 03:59:53;;;;;;;1.10;1.10;;;;;;;3.60;100.00;99448.16;5030205;28;20037;-62
2023/12/08 04:02:18;;;;;;;1.20;1.20;;;;;;;3.61;100.00;99449.88;5007271;28;20030;-62
2023/12/08 04:04:43;;;;;;;1.20;1.20;;;;;;;3.60;100.00;99446.41;5026560;28;20207;-62
2023/12/08 04:07:09;;;;;;;1.10;1.10;;;;;;;3.66;100.00;99435.78;5027487;28;20049;-62
2023/12/08 04:09:34;;;;;;;1.20;1.20;;;;;;;3.71;100.00;99431.34;5016162;28;20029;-62
2023/12/08 04:12:00;;;;;;;1.20;1.20;;;;;;;3.77;100.00;99425.13;5030931;28;20381;-62
2023/12/08 04:14:25;;;;;;;1.00;1.00;;;;;;;3.80;100.00;99409.28;5023057;28;20029;-62
2023/12/08 04:16:51;;;;;;;1.20;1.20;;;;;;;3.83;100.00;99396.09;5030815;28;20033;-62
2023/12/08 04:19:19;;;;;;;1.30;1.30;;;;;;;3.86;100.00;99386.38;5027465;28;20040;-62
2023/12/08 04:21:44;;;;;;;1.13;1.13;;;;;;;3.86;100.00;99388.16;5030839;28;20028;-62
2023/12/08 04:24:10;;;;;;;1.08;1.08;;;;;;;3.82;100.00;99386.47;5034386;28;20656;-63
2023/12/08 04:26:35;;;;;;;1.10;1.10;;;;;;;3.81;100.00;99372.44;5028594;28;20026;-63
2023/12/08 04:29:01;;;;;;;1.20;1.20;;;;;;;3.87;100.00;99382.00;5045514;28;20386;-63
2023/12/08 04:31:26;;;;;;;0.90;0.90;;;;;;;3.87;100.00;99382.84;5043486;28;20048;-63
2023/12/08 04:33:51;;;;;;;1.00;1.00;;;;;;;3.90;100.00;99387.22;5046123;28;20111;-62
2023/12/08 04:36:17;;;;;;;1.10;1.10;;;;;;;3.87;100.00;99387.28;5045629;28;20029;-63
2023/12/08 04:38:42;;;;;;;1.10;1.10;;;;;;;3.89;100.00;99390.72;5044228;28;20152;-63
2023/12/08 04:41:08;;;;;;;0.95;0.95;;;;;;;3.92;100.00;99398.59;5031422;28;20037;-62
2023/12/08 04:43:33;;;;;;;1.20;1.20;;;;;;;3.90;100.00;99395.94;5024493;28;20026;-62
2023/12/08 04:45:59;;;;;;;1.10;1.10;;;;;;;3.91;100.00;99399.47;5042009;28;20021;-63
2023/12/08 04:48:24;;;;;;;1.20;1.20;;;;;;;3.93;100.00;99408.22;5042863;28;20045;-62
2023/12/08 04:50:52;;;;;;;1.10;1.10;;;;;;;4.00;100.00;99399.34;5027257;28;20018;-62
2023/12/08 04:53:17;;;;;;;1.15;1.15;;;;;;;4.01;100.00;99396.66;5024877;28;20032;-63
2023/12/08 04:55:43;;;;;;;1.23;1.23;;;;;;;4.04;100.00;99401.00;5029195;28;20110;-62
2023/12/08 04:58:08;;;;;;;1.10;1.10;;;;;;;4.04;100.00;99403.63;5036056;28;20239;-62
2023/12/08 05:00:34;;;;;;;1.10;1.10;;;;;;;4.05;100.00;99408.03;5042073;28;20040;-63
2023/12/08 05:02:59;;;;;;;1.00;1.00;;;;;;;4.08;100.00;99413.22;5042743;28;20143;-63
2023/12/08 05:05:26;;;;;;;1.10;1.10;;;;;;;4.04;100.00;99406.25;5043214;28;20041;-63
2023/12/08 05:07:51;;;;;;;0.90;0.90;;;;;;;4.16;100.00;99420.97;5024783;28;20037;-62
2023/12/08 05:10:16;;;;;;;1.10;1.10;;;;;;;4.16;100.00;99435.03;5045269;28;20033;-62
2023/12/08 05:12:43;;;;;;;0.93;0.93;;;;;;;4.19;100.00;99437.59;5046429;28;20033;-63
2023/12/08 05:15:09;;;;;;;1.00;1.00;;;;;;;4.23;100.00;99441.94;5045099;28;20049;-63
2023/12/08 05:17:34;;;;;;;0.90;0.90;;;;;;;4.23;100.00;99446.31;5036422;28;20036;-63
2023/12/08 05:20:02;;;;;;;1.10;1.10;;;;;;;4.26;100.00;99446.25;5044149;28;20053;-63
2023/12/08 05:22:27;;;;;;;1.20;1.20;;;;;;;4.29;100.00;99441.81;5045531;28;20063;-62
2023/12/08 05:24:53;;;;;;;1.00;1.00;;;;;;;4.33;100.00;99429.47;5042381;28;20028;-63
2023/12/08 05:27:18;;;;;;;1.00;1.00;;;;;;;4.34;100.00;99445.25;5041342;28;20017;-62
2023/12/08 05:29:43;;;;;;;1.20;1.20;;;;;;;4.30;100.00;99445.31;5044337;28;20025;-62
2023/12/08 05:32:10;;;;;;;1.10;1.10;;;;;;;4.30;100.00;99448.81;5037370;28;20033;-63
2023/12/08 05:34:35;;;;;;;1.08;1.08;;;;;;;4.23;100.00;99435.78;5041631;28;20045;-63
2023/12/08 05:37:01;;;;;;;0.90;0.90;;;;;;;4.31;100.00;99442.66;5040416;28;20079;-63
2023/12/08 05:39:26;;;;;;;1.00;1.00;;;;;;;4.30;100.00;99435.66;5029093;28;20049;-63
2023/12/08 05:41:51;;;;;;;1.00;1.00;;;;;;;4.33;100.00;99430.34;5041640;28;20093;-64
2023/12/08 05:44:18;;;;;;;1.20;1.20;;;;;;;4.36;100.00;99439.94;5039174;28;20044;-62
2023/12/08 05:46:43;;;;;;;1.15;1.15;;;;;;;4.38;100.00;99444.31;5041515;28;20393;-62
2023/12/08 05:49:09;;;;;;;1.05;1.05;;;;;;;4.44;100.00;99444.19;5042638;28;20026;-63
2023/12/08 05:51:34;;;;;;;1.08;1.08;;;;;;;4.43;100.00;99438.97;5030683;28;20388;-64
2023/12/08 05:54:00;;;;;;;1.05;1.05;;;;;;;4.48;100.00;99439.75;5046463;28;20515;-63
2023/12/08 05:56:25;;;;;;;1.00;1.00;;;;;;;4.52;100.00;99439.66;5043091;28;20034;-63
2023/12/08 05:58:51;;;;;;;0.98;0.98;;;;;;;4.57;100.00;99440.44;5045710;28;20048;-62
2023/12/08 06:01:17;;;;;;;1.10;1.10;;;;;;;4.59;100.00;99449.19;5042326;28;20496;-63
2023/12/08 06:03:43;;;;;;;1.10;1.10;;;;;;;4.56;100.00;99451.88;5041030;28;20587;-62
2023/12/08 06:06:08;;;;;;;1.08;1.08;;;;;;;4.55;100.00;99452.75;5044128;28;20084;-63
2023/12/08 06:08:33;;;;;;;1.00;1.00;;;;;;;4.52;100.00;99447.56;5042884;28;20056;-63
2023/12/08 06:10:59;;;;;;;1.05;1.05;;;;;;;4.57;100.00;99458.00;5045424;28;20441;-63
2023/12/08 06:13:25;;;;;;;1.10;1.10;;;;;;;4.57;100.00;99456.25;5046872;28;20029;-63
2023/12/08 06:15:50;;;;;;;1.00;1.00;;;;;;;4.54;100.00;99445.78;5038402;28;20489;-62
2023/12/08 06:18:16;;;;;;;1.10;1.10;;;;;;;4.57;100.00;99452.72;5037216;28;20056;-62
2023/12/08 06:20:41;;;;;;;0.85;0.85;;;;;;;4.58;100.00;99447.44;5043650;28;20051;-62
2023/12/08 06:23:06;;;;;;;1.17;1.17;;;;;;;4.59;100.00;99451.81;5044084;28;20038;-62
2023/12/08 06:25:32;;;;;;;1.08;1.08;;;;;;;4.61;100.00;99443.91;5036740;28;20059;-62
2023/12/08 06:27:57;;;;;;;1.05;1.05;;;;;;;4.59;100.00;99449.19;5034819;28;20034;-63
2023/12/08 06:30:22;;;;;;;0.90;0.90;;;;;;;4.57;100.00;99450.09;5040395;28;20025;-63
2023/12/08 06:32:48;;;;;;;1.10;1.10;;;;;;;4.48;100.00;99437.97;5039650;28;20087;-62
2023/12/08 06:35:13;;;;;;;0.90;0.90;;;;;;;4.55;100.00;99442.22;5038967;28;20053;-62
2023/12/08 06:37:39;;;;;;;0.90;0.90;;;;;;;4.55;100.00;99436.09;5041627;28;20056;-62
2023/12/08 06:40:05;;;;;;;0.90;0.90;;;;;;;4.57;100.00;99445.72;5041980;28;20476;-63
2023/12/08 06:42:30;;;;;;;1.00;1.00;;;;;;;4.55;100.00;99447.50;5042855;28;20640;-62
2023/12/08 06:44:56;;;;;;;1.10;1.10;;;;;;;4.57;100.00;99448.34;5031501;28;20037;-63
2023/12/08 06:47:21;;;;;;;1.00;1.00;;;;;;;4.58;100.00;99446.59;5041895;28;20104;-62
2023/12/08 06:49:47;;;;;;;1.10;1.10;;;;;;;4.58;100.00;99444.81;5044458;28;20428;-62
2023/12/08 06:52:12;;;;;;;1.00;1.00;;;;;;;4.61;100.00;99452.66;5047551;28;20405;-63
2023/12/08 06:54:37;;;;;;;1.00;1.00;;;;;;;4.66;100.00;99450.81;5046602;28;20030;-63
2023/12/08 06:57:03;;;;;;;1.02;1.02;;;;;;;4.63;100.00;99444.75;5042980;28;20065;-62
2023/12/08 06:59:28;;;;;;;1.10;1.10;;;;;;;4.66;100.00;99449.94;5046170;28;20028;-63
2023/12/08 07:01:54;;;;;;;0.90;0.90;;;;;;;4.67;100.00;99452.56;5047248;28;20029;-63
2023/12/08 07:04:19;;;;;;;0.80;0.80;;;;;;;4.68;100.00;99451.66;5046829;28;20033;-63
2023/12/08 07:06:45;;;;;;;1.10;1.10;;;;;;;4.67;100.00;99460.47;5045293;28;20029;-63
2023/12/08 07:09:11;;;;;;;1.00;1.00;;;;;;;4.66;100.00;99460.50;5047823;28;20030;-63
2023/12/08 07:11:36;;;;;;;0.90;0.90;;;;;;;4.63;100.00;99466.66;5037568;28;20030;-63
2023/12/08 07:14:02;;;;;;;0.90;0.90;;;;;;;4.69;100.00;99461.31;5041083;28;20026;-62
2023/12/08 07:16:28;;;;;;;0.90;0.90;;;;;;;4.69;100.00;99456.03;5046442;28;20089;-63
2023/12/08 07:18:54;;;;;;;1.00;1.00;;;;;;;4.71;100.00;99448.94;5045656;28;20013;-63
2023/12/08 07:21:19;;;;;;;1.00;1.00;;;;;;;4.75;100.00;99450.66;5046150;28;20086;-62
2023/12/08 07:23:45;;;;;;;0.80;0.80;;;;;;;4.75;100.00;99450.66;5037169;28;20026;-63
2023/12/08 07:26:10;;;;;;;1.00;1.00;;;;;;;4.77;100.00;99442.72;5044589;28;20506;-63
2023/12/08 07:28:36;;;;;;;1.00;1.00;;;;;;;4.80;100.00;99448.81;5046335;28;20029;-63
2023/12/08 07:31:02;;;;;;;0.98;0.98;;;;;;;4.77;100.00;99454.13;5046620;28;20029;-63
2023/12/08 07:33:27;;;;;;;0.93;0.93;;;;;;;4.80;100.00;99453.19;5041032;28;20025;-63
2023/12/08 07:35:52;;;;;;;1.10;1.10;;;;;;;4.83;100.00;99450.50;5043734;28;20040;-63
2023/12/08 07:38:18;;;;;;;0.65;0.65;;;;;;;4.82;100.00;99451.41;5037910;28;20076;-63
2023/12/08 07:40:44;;;;;;;0.80;0.80;;;;;;;4.83;100.00;99451.38;5038489;28;20025;-63
2023/12/08 07:43:10;;;;;;;0.90;0.90;;;;;;;4.90;100.00;99460.03;5031556;28;20091;-63
2023/12/08 07:45:35;;;;;;;0.90;0.90;;;;;;;4.95;100.00;99466.97;5046110;28;20021;-63
2023/12/08 07:48:01;;;;;;;1.00;1.00;;;;;;;4.98;100.00;99456.34;5040458;28;20034;-63
2023/12/08 07:50:26;;;;;;;0.90;0.90;;;;;;;5.01;100.00;99463.31;5042917;28;20080;-64
2023/12/08 07:52:52;;;;;;;0.90;0.90;;;;;;;4.99;100.00;99473.03;5046157;28;20037;-63
2023/12/08 07:55:17;;;;;;;1.10;1.10;;;;;;;4.98;100.00;99472.16;5032077;28;20045;-62
2023/12/08 07:57:43;;;;;;;0.93;0.93;;;;;;;5.03;100.00;99475.59;5030326;28;20383;-62
2023/12/08 08:00:10;;;;;;;1.00;1.00;;;;;;;5.10;100.00;99479.84;5021774;28;20477;-63
2023/12/08 08:02:36;;;;;;;1.10;1.10;;;;;;;5.15;100.00;99478.00;5029134;28;20122;-62
2023/12/08 08:05:03;;;;;;;1.00;1.00;;;;;;;5.18;100.00;99480.56;5020794;28;20044;-62
2023/12/08 08:07:28;;;;;;;0.95;0.95;;;;;;;5.24;100.00;99483.06;5005306;28;20164;-62
2023/12/08 08:09:53;;;;;;;0.80;0.80;;;;;;;5.29;100.00;99486.47;5015380;28;20870;-62
2023/12/08 08:12:19;;;;;;;1.00;1.00;;;;;;;5.32;100.00;99490.84;5016909;28;20025;-62
2023/12/08 08:14:45;;;;;;;1.00;1.00;;;;;;;5.36;100.00;99496.03;5016552;28;20035;-62
2023/12/08 08:17:10;;;;;;;0.90;0.90;;;;;;;5.40;100.00;99488.91;5015201;28;20244;-62
2023/12/08 08:19:36;;;;;;;1.05;1.05;;;;;;;5.45;100.00;99481.78;5014631;28;20417;-62
2023/12/08 08:22:01;;;;;;;0.80;0.80;;;;;;;5.47;100.00;99484.38;5015153;28;20456;-62
2023/12/08 08:24:27;;;;;;;1.10;1.10;;;;;;;5.46;100.00;99472.06;5019520;28;20304;-62
2023/12/08 08:26:52;;;;;;;0.80;0.80;;;;;;;5.49;100.00;99470.25;5025878;28;20033;-62
2023/12/08 08:29:18;;;;;;;0.90;0.90;;;;;;;5.56;100.00;99470.97;5020436;28;20112;-62
2023/12/08 08:31:44;;;;;;;0.88;0.88;;;;;;;5.61;100.00;99472.63;5014168;28;20066;-62
2023/12/08 08:34:09;;;;;;;0.88;0.88;;;;;;;5.65;100.00;99478.72;5028289;28;20053;-62
2023/12/08 08:36:34;;;;;;;1.00;1.00;;;;;;;5.68;100.00;99483.94;5024774;28;20493;-61
2023/12/08 08:39:00;;;;;;;0.80;0.80;;;;;;;5.68;100.00;99479.53;5014768;28;20022;-62
2023/12/08 08:41:25;;;;;;;0.93;0.93;;;;;;;5.72;100.00;99477.66;5020423;28;20648;-62
2023/12/08 08:43:51;;;;;;;0.90;0.90;;;;;;;5.75;100.00;99477.63;5028093;28;20676;-62
2023/12/08 08:46:17;;;;;;;0.90;0.90;;;;;;;5.79;100.00;99487.19;5028286;28;20028;-62
2023/12/08 08:48:43;;;;;;;1.10;1.10;;;;;;;5.80;100.00;99488.94;5027755;28;20067;-62
2023/12/08 08:51:08;;;;;;;0.90;0.90;;;;;;;5.90;100.00;99491.38;5015555;28;20038;-62
2023/12/08 08:53:34;;;;;;;0.90;0.90;;;;;;;5.91;100.00;99489.59;5008535;28;20036;-62
2023/12/08 08:56:00;;;;;;;0.70;0.70;;;;;;;5.91;100.00;99486.97;5011565;28;20103;-62
2023/12/08 08:58:25;;;;;;;1.00;1.00;;;;;;;5.95;100.00;99488.63;5024912;28;20029;-61
2023/12/08 09:00:51;;;;;;;0.90;0.90;;;;;;;5.94;100.00;99487.78;5027508;28;20040;-62
2023/12/08 09:03:16;;;;;;;0.70;0.70;;;;;;;6.02;100.00;99490.22;5029259;28;20048;-62
2023/12/08 09:05:42;;;;;;;0.80;0.80;;;;;;;6.03;100.00;99489.34;5047730;28;20013;-63
2023/12/08 09:08:08;;;;;;;0.90;0.90;;;;;;;6.06;100.00;99481.34;5032197;28;20029;-63
2023/12/08 09:10:35;;;;;;;0.85;0.85;;;;;;;6.02;100.00;99472.63;5050902;28;20025;-63
2023/12/08 09:13:00;;;;;;;0.82;0.82;;;;;;;6.15;100.00;99489.03;5047135;28;20068;-63
2023/12/08 09:15:26;;;;;;;0.90;0.90;;;;;;;6.14;100.00;99490.81;5047927;28;20150;-63
2023/12/08 09:17:51;;;;;;;0.88;0.88;;;;;;;6.20;100.00;99489.78;5050567;28;20076;-63
2023/12/08 09:20:17;;;;;;;0.90;0.90;;;;;;;6.24;100.00;99497.59;5051152;28;20048;-63
2023/12/08 09:22:44;;;;;;;0.90;0.90;;;;;;;6.27;100.00;99501.97;5046844;28;20013;-64
2023/12/08 09:25:09;;;;;;;0.77;0.77;;;;;;;6.29;100.00;99508.06;5044633;28;20029;-63
2023/12/08 09:27:35;;;;;;;0.93;0.93;;;;;;;6.27;100.00;99504.59;5043076;28;20060;-63
2023/12/08 09:30:01;;;;;;;0.80;0.80;;;;;;;6.33;100.00;99513.25;5050332;28;20030;-63
2023/12/08 09:32:28;;;;;;;1.00;1.00;;;;;;;6.36;100.00;99512.28;5046033;28;20017;-63
2023/12/08 09:34:53;;;;;;;1.00;1.00;;;;;;;6.42;100.00;99517.44;5034251;28;20057;-63
2023/12/08 09:37:18;;;;;;;0.80;0.80;;;;;;;6.43;100.00;99516.53;5051156;28;20033;-63
2023/12/08 09:39:44;;;;;;;0.90;0.90;;;;;;;6.46;100.00;99513.81;5048566;28;20089;-63
2023/12/08 09:42:20;;;;;;;0.80;0.80;;;;;;;6.51;100.00;99519.84;5043235;28;20026;-63
2023/12/08 09:44:46;;;;;;;0.90;0.90;;;;;;;6.50;100.00;99516.38;5049458;28;20045;-63
2023/12/08 09:47:12;;;;;;;0.90;0.90;;;;;;;6.52;100.00;99514.53;5047132;28;20048;-63
2023/12/08 09:49:44;;;;;;;0.90;0.90;;;;;;;6.47;100.00;99526.13;5039855;28;20037;-62
2023/12/08 09:52:13;;;;;;;0.82;0.82;;;;;;;6.48;100.00;99522.56;5019812;28;20481;-61
2023/12/08 09:54:40;;;;;;;1.00;1.00;;;;;;;6.48;100.00;99519.94;5036050;28;20038;-62
2023/12/08 09:57:09;;;;;;;0.90;0.90;;;;;;;6.47;100.00;99520.84;5032240;28;20033;-62
2023/12/08 09:59:36;;;;;;;1.00;1.00;;;;;;;6.47;100.00;99510.28;5027894;28;20041;-62
2023/12/08 10:02:02;;;;;;;0.90;0.90;;;;;;;6.50;100.00;99507.56;5035517;28;20065;-61
2023/12/08 10:04:28;;;;;;;0.90;0.90;;;;;;;6.54;100.00;99502.16;5032566;28;20030;-61
2023/12/08 10:06:58;;;;;;;0.90;0.90;;;;;;;6.53;100.00;99508.34;5018149;28;20060;-61
2023/12/08 10:09:25;;;;;;;0.85;0.85;;;;;;;6.55;100.00;99503.03;5036067;28;20052;-62
2023/12/08 10:11:50;;;;;;;0.82;0.82;;;;;;;6.51;100.00;99502.22;5031996;28;20240;-62
2023/12/08 10:14:18;;;;;;;0.95;0.95;;;;;;;6.51;100.00;99501.34;5012914;28;20057;-61
2023/12/08 10:16:44;;;;;;;0.85;0.85;;;;;;;6.44;100.00;99489.22;5007415;28;20032;-62
2023/12/08 10:19:09;;;;;;;0.90;0.90;;;;;;;6.48;100.00;99501.44;5014036;28;20034;-62
2023/12/08 10:21:36;;;;;;;0.90;0.90;;;;;;;6.48;100.00;99489.09;5011330;28;20501;-62
2023/12/08 10:24:03;;;;;;;0.90;0.90;;;;;;;6.59;100.00;99500.25;5014170;28;20064;-61
2023/12/08 10:26:30;;;;;;;1.00;1.00;;;;;;;6.57;100.00;99499.44;5012182;28;20096;-62
2023/12/08 10:28:56;;;;;;;1.00;1.00;;;;;;;6.59;100.00;99502.91;5020229;28;20025;-62
2023/12/08 10:31:22;;;;;;;0.90;0.90;;;;;;;6.57;100.00;99490.66;5032917;28;20613;-62
2023/12/08 10:33:48;;;;;;;0.88;0.88;;;;;;;6.59;100.00;99494.97;5022941;28;20089;-61
2023/12/08 10:36:13;;;;;;;0.82;0.82;;;;;;;6.59;100.00;99489.69;5012888;28;20030;-61
2023/12/08 10:38:39;;;;;;;0.80;0.80;;;;;;;6.61;100.00;99497.59;5012509;28;20028;-62
2023/12/08 10:41:05;;;;;;;0.90;0.90;;;;;;;6.64;100.00;99493.09;5012366;28;20026;-62
2023/12/08 10:43:30;;;;;;;0.90;0.90;;;;;;;6.67;100.00;99493.00;5028255;28;20383;-62
2023/12/08 10:45:56;;;;;;;0.90;0.90;;;;;;;6.76;100.00;99480.47;5022752;28;20037;-62
2023/12/08 10:48:23;;;;;;;0.90;0.90;;;;;;;6.88;100.00;99483.69;5031315;28;20013;-62
2023/12/08 10:50:50;;;;;;;0.90;0.90;;;;;;;6.84;100.00;99474.06;5019774;28;20044;-62
2023/12/08 10:53:20;;;;;;;0.82;0.82;;;;;;;6.89;100.00;99472.19;5011535;28;20025;-62
2023/12/08 10:56:05;;;;;;;0.85;0.85;;;;;;;6.91;100.00;99474.78;5013492;28;20061;-62
2023/12/08 10:58:35;;;;;;;0.80;0.80;;;;;;;6.92;100.00;99482.66;5012621;28;20026;-62
2023/12/08 11:01:03;;;;;;;0.90;0.90;;;;;;;6.96;100.00;99475.53;5015503;28;20088;-62
2023/12/08 11:03:35;;;;;;;0.85;0.85;;;;;;;6.96;100.00;99484.34;5025824;28;20037;-61
2023/12/08 11:06:17;;;;;;;0.90;0.90;;;;;;;6.96;100.00;99481.69;5030467;28;20496;-61
2023/12/08 11:08:46;;;;;;;0.80;0.80;;;;;;;6.96;100.00;99486.97;5032242;28;20021;-61
2023/12/08 11:11:12;;;;;;;0.90;0.90;;;;;;;7.00;100.00;99485.97;5032518;28;20459;-62
2023/12/08 11:13:47;;;;;;;0.80;0.80;;;;;;;7.04;100.00;99482.34;5024847;28;20029;-62
2023/12/08 11:16:32;;;;;;;0.80;0.80;;;;;;;7.08;100.00;99486.66;5011650;28;20104;-62
2023/12/08 11:18:59;;;;;;;0.90;0.90;;;;;;;7.08;100.00;99480.50;5013603;28;20069;-62
2023/12/08 11:21:26;;;;;;;0.90;0.90;;;;;;;7.11;100.00;99489.22;5022657;28;20457;-61
2023/12/08 11:23:52;;;;;;;0.95;0.95;;;;;;;7.12;100.00;99485.66;5032396;28;20434;-63
2023/12/08 11:26:30;;;;;;;0.82;0.82;;;;;;;7.19;100.00;99494.28;5041764;28;20839;-63
2023/12/08 11:29:18;;;;;;;0.82;0.82;;;;;;;7.22;100.00;99487.13;5045621;28;20601;-63